Time;durP1;ratioP1;P1;durP2;ratioP2;P2;SDS_P1;SDS_P2;PMS_P1;PMS_P2;Temp;Humidity;BMP_temperature;BMP_pressure;BME280_temperature;BME280_humidity;BME280_pressure;Samples;Min_cycle;Max_cycle;Signal;HPM_P1;HPM_P2
2022/01/04 00:01:48;;;;;;;2.97;2.43;;;;;;;10.80;70.04;97939.72;4974601;28;20225;-69
2022/01/04 00:04:15;;;;;;;3.40;2.33;;;;;;;11.24;68.06;97904.28;4992857;28;20230;-68
2022/01/04 00:06:44;;;;;;;3.00;2.60;;;;;;;11.42;67.46;97898.94;4994808;28;20233;-68
2022/01/04 00:09:12;;;;;;;4.90;2.50;;;;;;;10.41;70.02;97976.31;4995830;28;20222;-68
2022/01/04 00:14:10;;;;;;;3.10;2.27;;;;;;;11.46;67.74;97886.75;4991456;28;20749;-69
2022/01/04 00:16:37;;;;;;;3.53;2.77;;;;;;;11.39;68.39;97878.03;4994063;28;20684;-69
2022/01/04 00:19:04;;;;;;;3.47;2.30;;;;;;;10.46;68.62;97933.81;4998586;28;20448;-68
2022/01/04 00:21:31;;;;;;;2.43;2.23;;;;;;;10.47;70.72;97930.13;4990843;28;20230;-69
2022/01/04 00:23:58;;;;;;;2.83;2.37;;;;;;;9.59;72.26;97980.53;4992906;28;20236;-68
2022/01/04 00:26:25;;;;;;;3.33;2.30;;;;;;;9.57;72.84;97978.06;4992314;28;20230;-68
2022/01/04 00:28:55;;;;;;;2.60;2.40;;;;;;;9.32;74.58;97989.34;4980540;28;20708;-69
2022/01/04 00:31:22;;;;;;;3.13;2.20;;;;;;;10.57;71.51;97889.66;4990089;28;20218;-68
2022/01/04 00:33:50;;;;;;;3.13;2.20;;;;;;;10.06;71.02;97931.41;4997286;28;20225;-68
2022/01/04 00:36:17;;;;;;;2.30;2.07;;;;;;;9.66;73.24;97955.53;5006631;28;20218;-68
2022/01/04 00:38:44;;;;;;;2.73;2.40;;;;;;;10.65;71.66;97876.03;5006407;28;20237;-69
2022/01/04 00:41:11;;;;;;;2.83;2.63;;;;;;;8.88;75.29;97974.06;5004663;28;20217;-68
2022/01/04 00:43:38;;;;;;;3.80;2.60;;;;;;;10.91;69.87;97830.72;5007040;28;20229;-68
2022/01/04 00:46:05;;;;;;;2.33;2.13;;;;;;;9.78;72.24;97894.44;5008286;28;20610;-68
2022/01/04 00:51:01;;;;;;;4.90;2.40;;;;;;;8.95;74.38;97932.31;5008836;28;20228;-68
2022/01/04 00:53:28;;;;;;;2.90;2.60;;;;;;;10.30;71.96;97841.06;5008485;28;20235;-68
2022/01/04 00:55:55;;;;;;;3.93;2.50;;;;;;;10.62;71.18;97835.69;4992380;28;20218;-69
2022/01/04 00:58:22;;;;;;;3.50;2.60;;;;;;;9.46;73.16;97896.19;4970471;28;20503;-68
2022/01/04 01:00:49;;;;;;;3.03;2.40;;;;;;;10.33;71.45;97837.16;4989371;28;20244;-68
2022/01/04 01:03:16;;;;;;;4.30;2.50;;;;;;;9.00;74.83;97903.25;4988957;28;20236;-69
2022/01/04 01:05:43;;;;;;;2.30;2.10;;;;;;;10.43;71.54;97790.31;4988443;28;20250;-68
2022/01/04 01:08:10;;;;;;;4.10;2.30;;;;;;;9.67;74.41;97858.63;4987587;28;20234;-67
2022/01/04 01:10:46;;;;;;;2.80;2.60;;;;;;;10.28;71.90;97798.63;4988548;28;20240;-68
2022/01/04 01:13:14;;;;;;;3.13;2.47;;;;;;;9.95;73.70;97830.88;4989037;28;20768;-68
2022/01/04 01:15:44;;;;;;;5.13;2.60;;;;;;;10.67;70.10;97755.84;4988383;28;20226;-69
2022/01/04 01:18:13;;;;;;;3.87;2.57;;;;;;;10.18;74.09;97797.50;4988006;28;20234;-68
2022/01/04 01:20:40;;;;;;;2.90;2.60;;;;;;;10.36;69.65;97780.75;4988389;28;20226;-68
2022/01/04 01:23:08;;;;;;;2.77;2.40;;;;;;;9.70;73.52;97828.13;4988547;28;20230;-68
2022/01/04 01:25:34;;;;;;;4.10;2.50;;;;;;;11.13;68.91;97714.50;4988607;28;20236;-68
2022/01/04 01:28:02;;;;;;;3.60;2.20;;;;;;;10.36;70.74;97754.13;4987633;28;20226;-68
2022/01/04 01:30:35;;;;;;;2.80;2.30;;;;;;;9.86;74.43;97800.19;4988346;28;20967;-69
2022/01/04 01:33:02;;;;;;;3.63;3.00;;;;;;;10.27;69.46;97749.06;4988180;28;20240;-68
2022/01/04 01:35:30;;;;;;;4.87;2.70;;;;;;;9.42;74.11;97813.31;4970992;28;20234;-69
2022/01/04 01:37:58;;;;;;;5.13;2.53;;;;;;;8.91;73.96;97812.25;4985965;28;20234;-69
2022/01/04 01:40:25;;;;;;;6.03;2.87;;;;;;;9.09;75.60;97816.09;4991686;28;20231;-68
2022/01/04 01:42:52;;;;;;;2.77;2.50;;;;;;;9.20;73.67;97807.47;5007702;28;20235;-68
2022/01/04 01:45:21;;;;;;;3.43;2.63;;;;;;;9.70;74.25;97782.88;5006956;28;20659;-68
2022/01/04 01:47:49;;;;;;;7.03;2.50;;;;;;;10.94;70.02;97686.22;5005918;28;20729;-69
2022/01/04 01:50:17;;;;;;;3.27;2.63;;;;;;;10.63;70.69;97706.69;4987160;28;20226;-69
2022/01/04 01:52:49;;;;;;;4.07;2.83;;;;;;;9.41;73.75;97776.25;4997880;28;20558;-68
2022/01/04 01:55:19;;;;;;;3.70;2.40;;;;;;;10.77;70.69;97688.66;5007331;28;20228;-68
2022/01/04 01:57:48;;;;;;;3.30;2.50;;;;;;;9.89;71.72;97720.69;4989777;28;20230;-68
2022/01/04 02:00:17;;;;;;;2.50;2.30;;;;;;;9.32;73.28;97749.09;4979646;28;20225;-68
2022/01/04 02:02:45;;;;;;;4.47;2.40;;;;;;;10.95;69.75;97654.00;4988039;28;20230;-68
2022/01/04 02:05:13;;;;;;;3.50;2.70;;;;;;;11.98;65.56;97611.13;4987952;28;20706;-68
2022/01/04 02:07:42;;;;;;;2.63;2.30;;;;;;;10.98;67.97;97674.88;4986936;28;20230;-68
2022/01/04 02:10:10;;;;;;;3.53;2.40;;;;;;;11.07;69.11;97667.38;4991290;28;20229;-68
2022/01/04 02:12:46;;;;;;;4.53;2.47;;;;;;;12.02;65.12;97622.16;5004660;28;20624;-68
2022/01/04 02:15:21;;;;;;;3.03;2.70;;;;;;;11.24;66.95;97656.88;5007558;28;20221;-68
2022/01/04 02:17:49;;;;;;;2.33;2.13;;;;;;;11.10;67.43;97671.47;5006486;28;20232;-68
2022/01/04 02:20:17;;;;;;;3.27;2.37;;;;;;;11.74;66.35;97629.00;4979581;28;20229;-68
2022/01/04 02:22:44;;;;;;;4.23;2.33;;;;;;;12.29;63.81;97595.75;4987636;28;20237;-69
2022/01/04 02:25:12;;;;;;;2.40;2.20;;;;;;;12.31;63.95;97602.50;4968008;28;20262;-69
2022/01/04 02:27:40;;;;;;;3.83;2.77;;;;;;;11.81;65.25;97619.00;4986269;28;20234;-68
2022/01/04 02:30:11;;;;;;;3.80;2.67;;;;;;;12.41;63.41;97582.34;4987156;28;20220;-68
2022/01/04 02:32:38;;;;;;;2.87;2.47;;;;;;;11.84;64.61;97620.41;4986489;28;20690;-69
2022/01/04 02:35:05;;;;;;;3.77;2.33;;;;;;;12.22;64.22;97603.91;4985557;28;20222;-69
2022/01/04 02:37:33;;;;;;;2.60;2.40;;;;;;;12.18;64.18;97602.75;4986897;28;20732;-69
2022/01/04 02:40:01;;;;;;;2.73;2.47;;;;;;;11.75;65.09;97607.41;5000025;28;20227;-69
2022/01/04 02:42:28;;;;;;;3.77;2.60;;;;;;;12.35;63.76;97600.16;4986601;28;20221;-68
2022/01/04 02:44:55;;;;;;;3.33;2.40;;;;;;;12.41;63.51;97579.69;4987372;28;20613;-69
2022/01/04 02:47:22;;;;;;;2.97;2.67;;;;;;;12.58;63.61;97591.28;4987035;28;20222;-69
2022/01/04 02:49:49;;;;;;;3.53;3.00;;;;;;;12.28;63.55;97580.78;4987168;28;20218;-69
2022/01/04 02:52:16;;;;;;;3.07;2.77;;;;;;;11.54;66.94;97618.66;4986186;28;20222;-69
2022/01/04 02:54:43;;;;;;;3.73;2.53;;;;;;;11.92;64.92;97585.34;4987315;28;20236;-69
2022/01/04 02:57:10;;;;;;;3.33;2.60;;;;;;;11.89;65.47;97575.16;4987562;28;20226;-69
2022/01/04 02:59:37;;;;;;;3.70;2.93;;;;;;;11.95;65.63;97575.00;4987555;28;20230;-69
2022/01/04 03:02:05;;;;;;;4.03;2.40;;;;;;;12.21;64.62;97561.38;4987200;28;20234;-69
2022/01/04 03:04:32;;;;;;;4.30;2.60;;;;;;;10.50;68.95;97635.66;4986314;28;20332;-69
2022/01/04 03:07:00;;;;;;;3.43;2.80;;;;;;;11.15;67.58;97589.69;4986396;28;21022;-69
2022/01/04 03:09:27;;;;;;;3.90;2.37;;;;;;;10.27;71.77;97628.34;4969533;28;20230;-68
2022/01/04 03:11:56;;;;;;;3.87;2.80;;;;;;;10.02;71.97;97644.38;4987271;28;20259;-69
2022/01/04 03:14:23;;;;;;;4.10;2.80;;;;;;;11.51;67.46;97539.81;4985123;28;20226;-69
2022/01/04 03:16:50;;;;;;;3.10;2.30;;;;;;;9.98;68.88;97596.03;4969292;28;20644;-69
2022/01/04 03:19:17;;;;;;;3.80;2.40;;;;;;;10.83;70.04;97581.91;4986419;28;20214;-69
2022/01/04 03:21:45;;;;;;;5.73;2.53;;;;;;;9.80;72.50;97626.13;4987011;28;20225;-69
2022/01/04 03:24:14;;;;;;;3.57;2.80;;;;;;;10.90;70.87;97554.38;4986619;28;20604;-69
2022/01/04 03:26:42;;;;;;;3.27;2.60;;;;;;;11.58;67.34;97505.00;4982117;28;20238;-69
2022/01/04 03:29:12;;;;;;;3.10;2.47;;;;;;;11.79;66.73;97492.91;4983399;28;20230;-69
2022/01/04 03:31:39;;;;;;;2.87;2.50;;;;;;;11.12;69.97;97511.94;4967201;28;20231;-69
2022/01/04 03:34:07;;;;;;;2.50;2.30;;;;;;;11.14;69.54;97521.34;4966765;28;20230;-69
2022/01/04 03:36:35;;;;;;;3.67;2.70;;;;;;;10.67;70.19;97547.88;4985836;28;20612;-68
2022/01/04 03:39:05;;;;;;;3.50;3.00;;;;;;;10.04;74.51;97579.19;4986418;28;20237;-68
2022/01/04 03:41:37;;;;;;;4.03;2.70;;;;;;;11.71;66.98;97456.69;4968516;28;20245;-69
2022/01/04 03:44:06;;;;;;;4.83;2.67;;;;;;;11.44;67.97;97498.28;4967394;28;20237;-69
2022/01/04 03:46:34;;;;;;;3.10;2.80;;;;;;;9.61;72.52;97590.66;4969319;28;20230;-69
2022/01/04 03:49:01;;;;;;;2.40;2.20;;;;;;;10.84;68.40;97524.03;4986023;28;20230;-69
2022/01/04 03:51:28;;;;;;;3.40;2.20;;;;;;;11.75;66.28;97449.00;4986896;28;20218;-69
2022/01/04 03:54:02;;;;;;;5.33;2.70;;;;;;;11.11;69.83;97496.97;4986341;28;20230;-69
2022/01/04 03:56:29;;;;;;;3.40;2.63;;;;;;;9.96;70.32;97533.41;4986293;28;20226;-69
2022/01/04 03:58:56;;;;;;;3.97;2.63;;;;;;;9.64;72.25;97565.44;4969473;28;20232;-69
2022/01/04 04:01:23;;;;;;;3.53;2.30;;;;;;;11.11;68.70;97492.47;4976204;28;20225;-69
2022/01/04 04:03:50;;;;;;;2.77;2.43;;;;;;;10.48;72.27;97505.25;4982208;28;20231;-69
2022/01/04 04:06:17;;;;;;;3.00;2.73;;;;;;;11.47;67.35;97441.75;4967487;28;20219;-69
2022/01/04 04:08:44;;;;;;;3.53;2.57;;;;;;;10.14;72.59;97504.09;4967764;28;20227;-69
2022/01/04 04:11:11;;;;;;;2.70;2.50;;;;;;;11.46;68.15;97421.44;4978737;28;20228;-69
2022/01/04 04:13:38;;;;;;;2.93;2.40;;;;;;;9.62;73.86;97523.06;4989855;28;20599;-69
2022/01/04 04:16:05;;;;;;;3.73;2.70;;;;;;;10.78;70.55;97450.28;4988559;28;20225;-69
2022/01/04 04:18:32;;;;;;;3.43;2.70;;;;;;;8.75;76.54;97553.03;4989389;28;20260;-69
2022/01/04 04:20:59;;;;;;;2.37;2.17;;;;;;;10.60;71.68;97449.31;4990303;28;20236;-69
2022/01/04 04:23:26;;;;;;;3.67;2.53;;;;;;;10.96;70.29;97425.41;4989088;28;20952;-69
2022/01/04 04:25:53;;;;;;;3.60;2.20;;;;;;;10.16;72.89;97479.88;4988120;28;20233;-69
2022/01/04 04:28:20;;;;;;;3.83;2.63;;;;;;;11.43;68.34;97392.53;4974181;28;20706;-69
2022/01/04 04:30:47;;;;;;;4.20;2.60;;;;;;;11.73;67.24;97376.31;4986655;28;20243;-69
2022/01/04 04:33:14;;;;;;;2.53;2.30;;;;;;;8.74;76.99;97526.63;4965604;28;20233;-69
2022/01/04 04:35:41;;;;;;;3.73;2.63;;;;;;;10.19;74.23;97444.81;4973197;28;20236;-75
2022/01/04 04:38:08;;;;;;;2.03;1.83;;;;;;;8.87;77.71;97513.28;4973465;28;20223;-69
2022/01/04 04:40:35;;;;;;;1.70;1.60;;;;;;;9.48;74.93;97457.72;4955111;28;20632;-69
2022/01/04 04:43:02;;;;;;;4.07;2.57;;;;;;;10.79;70.49;97369.25;4979374;28;20599;-69
2022/01/04 04:45:29;;;;;;;2.87;2.43;;;;;;;9.22;75.54;97464.91;4970001;28;20222;-69
2022/01/04 04:47:57;;;;;;;2.23;2.03;;;;;;;8.51;80.04;97513.88;4958748;28;20235;-69
2022/01/04 04:50:23;;;;;;;4.17;2.37;;;;;;;9.60;75.63;97444.47;4959974;28;20223;-69
2022/01/04 04:52:51;;;;;;;3.10;2.20;;;;;;;10.42;73.14;97380.94;4967909;28;20733;-69
2022/01/04 04:55:18;;;;;;;2.40;2.20;;;;;;;10.39;74.09;97389.38;4959825;28;20226;-69
2022/01/04 04:57:45;;;;;;;1.93;1.83;;;;;;;11.07;70.92;97320.56;4970183;28;20230;-69
2022/01/04 05:00:12;;;;;;;2.40;2.20;;;;;;;10.34;74.74;97367.94;4969205;28;20233;-69
2022/01/04 05:02:39;;;;;;;3.53;2.23;;;;;;;9.14;77.40;97433.28;4967105;28;20234;-69
2022/01/04 05:05:07;;;;;;;2.37;2.17;;;;;;;10.13;72.96;97357.78;4968081;28;20226;-69
2022/01/04 05:07:35;;;;;;;2.63;2.00;;;;;;;9.46;76.66;97403.88;4967386;28;20223;-69
2022/01/04 05:10:07;;;;;;;3.13;2.10;;;;;;;9.72;76.95;97389.44;4950543;28;20229;-69
2022/01/04 05:12:34;;;;;;;3.30;2.40;;;;;;;10.21;75.48;97336.97;4965822;28;20237;-69
2022/01/04 05:15:02;;;;;;;2.97;2.50;;;;;;;11.35;70.41;97274.44;4973061;28;20223;-69
2022/01/04 05:17:31;;;;;;;2.90;2.60;;;;;;;9.86;75.50;97384.78;4984732;28;20594;-69
2022/01/04 05:19:59;;;;;;;3.13;2.60;;;;;;;10.59;73.38;97314.41;4987411;28;20253;-69
2022/01/04 05:22:26;;;;;;;2.70;2.20;;;;;;;10.35;75.29;97320.75;4982864;28;20597;-69
2022/01/04 05:24:52;;;;;;;2.47;2.10;;;;;;;10.08;76.04;97340.66;4972908;28;20628;-69
2022/01/04 05:27:20;;;;;;;1.93;1.83;;;;;;;10.69;72.82;97287.19;4977454;28;20236;-69
2022/01/04 05:29:47;;;;;;;4.03;2.30;;;;;;;10.64;71.89;97303.88;4987611;28;20609;-69
2022/01/04 05:32:14;;;;;;;3.30;2.07;;;;;;;9.33;77.79;97396.88;4970088;28;20620;-69
2022/01/04 05:34:41;;;;;;;2.70;2.50;;;;;;;10.57;72.36;97283.69;4967303;28;20582;-69
2022/01/04 05:37:08;;;;;;;2.50;2.17;;;;;;;10.09;73.59;97320.16;4967699;28;20252;-69
2022/01/04 05:39:35;;;;;;;2.40;2.20;;;;;;;10.77;72.92;97278.81;4967468;28;20218;-69
2022/01/04 05:42:03;;;;;;;4.00;2.40;;;;;;;12.09;68.34;97236.22;4967550;28;20234;-69
2022/01/04 05:44:30;;;;;;;2.90;2.20;;;;;;;11.55;69.44;97259.81;4967437;28;20240;-69
2022/01/04 05:47:00;;;;;;;2.37;2.17;;;;;;;9.74;74.56;97347.44;4967459;28;20237;-69
2022/01/04 05:49:27;;;;;;;3.20;2.40;;;;;;;10.80;73.12;97285.53;4967334;28;20237;-69
2022/01/04 05:51:54;;;;;;;2.17;1.97;;;;;;;10.92;72.84;97274.88;4982139;28;20237;-69
2022/01/04 05:54:20;;;;;;;2.57;2.27;;;;;;;11.59;69.62;97221.75;4967074;28;20219;-69
2022/01/04 05:56:47;;;;;;;2.97;2.00;;;;;;;10.58;73.63;97288.78;4966576;28;20245;-69
2022/01/04 05:59:14;;;;;;;2.73;2.47;;;;;;;10.57;74.25;97283.69;4967427;28;20307;-69
2022/01/04 06:01:42;;;;;;;3.63;2.10;;;;;;;10.00;77.45;97309.03;4967009;28;20226;-69
2022/01/04 06:04:10;;;;;;;2.97;2.17;;;;;;;9.61;78.07;97313.84;4965390;28;20241;-69
2022/01/04 06:06:40;;;;;;;2.57;2.37;;;;;;;11.72;70.26;97188.59;4981661;28;20692;-69
2022/01/04 06:09:15;;;;;;;3.20;2.10;;;;;;;8.79;80.11;97346.88;4948900;28;20238;-69
2022/01/04 06:11:58;;;;;;;3.07;2.30;;;;;;;10.20;75.56;97254.59;4966786;28;20233;-69
2022/01/04 06:17:11;;;;;;;3.30;2.20;;;;;;;11.15;73.63;97194.78;4966596;28;20233;-69
2022/01/04 06:19:39;;;;;;;3.70;1.90;;;;;;;11.10;73.47;97205.38;4981142;28;20226;-69
2022/01/04 06:22:06;;;;;;;2.70;2.50;;;;;;;11.10;73.64;97215.25;5001006;28;20226;-69
2022/01/04 06:24:33;;;;;;;2.43;2.23;;;;;;;11.68;70.39;97170.63;4988338;28;20874;-69
2022/01/04 06:27:00;;;;;;;3.10;2.80;;;;;;;10.32;74.65;97250.13;5003348;28;20259;-69
2022/01/04 06:29:27;;;;;;;3.00;2.67;;;;;;;11.09;73.64;97211.75;4966619;28;20524;-69
2022/01/04 06:31:55;;;;;;;3.40;2.30;;;;;;;11.16;73.17;97196.44;4965583;28;20230;-69
2022/01/04 06:34:22;;;;;;;2.37;2.20;;;;;;;9.71;78.05;97281.34;4957063;28;20232;-69
2022/01/04 06:36:49;;;;;;;2.80;2.23;;;;;;;10.30;75.21;97225.53;4980846;28;20233;-69
2022/01/04 06:39:16;;;;;;;2.50;2.30;;;;;;;10.58;74.06;97203.50;4968248;28;20724;-69
2022/01/04 06:41:43;;;;;;;2.53;2.33;;;;;;;10.77;74.34;97190.00;4996489;28;20259;-69
2022/01/04 06:44:10;;;;;;;2.53;2.33;;;;;;;9.99;76.21;97235.47;5005478;28;20228;-69
2022/01/04 06:46:38;;;;;;;2.87;2.37;;;;;;;11.52;72.49;97162.34;5003889;28;20802;-69
2022/01/04 06:49:05;;;;;;;2.70;2.20;;;;;;;10.01;75.46;97229.94;4987524;28;20229;-69
2022/01/04 06:51:32;;;;;;;4.37;2.43;;;;;;;9.92;77.86;97248.91;5005426;28;20226;-69
2022/01/04 06:53:59;;;;;;;2.27;2.10;;;;;;;12.10;69.64;97122.94;5004578;28;20235;-69
2022/01/04 06:56:26;;;;;;;4.47;2.60;;;;;;;11.17;72.66;97187.34;4996620;28;20226;-69
2022/01/04 06:58:53;;;;;;;2.83;2.17;;;;;;;11.52;71.80;97167.69;4984918;28;20641;-69
2022/01/04 07:01:21;;;;;;;2.40;2.20;;;;;;;11.64;70.36;97156.13;4985582;28;20228;-69
2022/01/04 07:03:48;;;;;;;3.47;2.33;;;;;;;11.67;69.71;97158.31;4985167;28;20233;-69
2022/01/04 07:06:15;;;;;;;3.23;2.00;;;;;;;11.21;72.42;97193.03;4981818;28;20236;-69
2022/01/04 07:08:43;;;;;;;2.40;2.20;;;;;;;11.65;70.92;97181.78;4985484;28;20242;-69
2022/01/04 07:11:10;;;;;;;2.73;2.53;;;;;;;11.76;71.00;97160.34;4968157;28;20226;-69
2022/01/04 07:13:37;;;;;;;2.47;2.30;;;;;;;12.22;69.20;97140.72;4985322;28;20617;-69
2022/01/04 07:16:04;;;;;;;2.67;2.40;;;;;;;12.17;69.93;97146.00;4985607;28;20228;-69
2022/01/04 07:18:31;;;;;;;2.43;2.23;;;;;;;10.24;72.86;97189.16;4985218;28;20237;-69
2022/01/04 07:20:58;;;;;;;2.73;2.10;;;;;;;12.54;68.75;97126.69;4984582;28;20234;-69
2022/01/04 07:23:25;;;;;;;3.40;2.20;;;;;;;12.49;69.09;97122.91;4983963;28;20226;-69
2022/01/04 07:25:52;;;;;;;2.80;2.60;;;;;;;11.42;72.00;97188.06;4983351;28;20699;-70
2022/01/04 07:28:19;;;;;;;3.23;2.30;;;;;;;13.33;65.86;97096.78;4975905;28;20225;-69
2022/01/04 07:30:46;;;;;;;3.03;1.90;;;;;;;12.75;67.06;97138.47;4993339;28;20229;-69
2022/01/04 07:33:13;;;;;;;4.40;2.37;;;;;;;12.19;68.62;97155.41;4967523;28;20226;-69
2022/01/04 07:35:40;;;;;;;2.70;2.50;;;;;;;12.32;68.87;97149.69;4967653;28;20234;-69
2022/01/04 07:38:07;;;;;;;4.10;2.40;;;;;;;12.21;69.62;97163.16;4984687;28;20722;-69
2022/01/04 07:40:34;;;;;;;5.10;2.60;;;;;;;13.17;66.44;97127.97;4986382;28;20699;-69
2022/01/04 07:43:01;;;;;;;3.63;2.30;;;;;;;12.86;66.85;97122.28;4969127;28;20606;-69
2022/01/04 07:45:29;;;;;;;2.53;2.30;;;;;;;12.59;68.05;97140.94;4986426;28;20228;-69
2022/01/04 07:47:57;;;;;;;2.73;2.33;;;;;;;12.74;68.05;97142.19;4991503;28;20604;-69
2022/01/04 07:50:24;;;;;;;2.93;2.67;;;;;;;10.93;72.25;97204.50;5009404;28;20236;-69
2022/01/04 07:52:51;;;;;;;4.07;2.20;;;;;;;12.88;67.62;97132.72;5008424;28;20446;-69
2022/01/04 07:55:19;;;;;;;2.43;2.23;;;;;;;12.44;69.21;97138.06;5008230;28;20225;-69
2022/01/04 07:57:46;;;;;;;3.33;1.87;;;;;;;11.68;72.55;97191.97;5008493;28;20778;-69
2022/01/04 08:00:14;;;;;;;2.50;2.03;;;;;;;12.81;67.73;97116.88;4972066;28;20230;-69
2022/01/04 08:02:42;;;;;;;2.80;2.60;;;;;;;13.07;66.69;97117.97;4988721;28;20236;-69
2022/01/04 08:05:10;;;;;;;2.33;2.20;;;;;;;12.86;67.72;97129.50;4988554;28;20599;-69
2022/01/04 08:07:38;;;;;;;2.60;2.40;;;;;;;12.92;66.26;97098.25;4988152;28;20230;-69
2022/01/04 08:10:06;;;;;;;1.70;1.60;;;;;;;12.75;67.47;97119.75;4988433;28;20262;-69
2022/01/04 08:12:33;;;;;;;2.30;1.90;;;;;;;12.35;69.28;97136.91;4988828;28;20232;-69
2022/01/04 08:15:00;;;;;;;6.00;2.33;;;;;;;12.71;68.17;97100.69;4988300;28;20237;-69
2022/01/04 08:17:29;;;;;;;2.20;2.00;;;;;;;13.11;67.25;97104.09;4970445;28;20226;-69
2022/01/04 08:19:57;;;;;;;4.53;2.93;;;;;;;12.56;69.60;97128.06;4989677;28;20236;-69
2022/01/04 08:22:24;;;;;;;2.47;2.27;;;;;;;10.89;72.40;97166.81;4988171;28;20232;-68
2022/01/04 08:24:51;;;;;;;2.87;1.90;;;;;;;13.21;66.90;97080.09;4976388;28;20264;-69
2022/01/04 08:27:19;;;;;;;2.53;2.00;;;;;;;13.02;67.92;97072.41;4997568;28;20789;-69
2022/01/04 08:29:46;;;;;;;2.10;1.90;;;;;;;13.33;66.60;97072.69;4988491;28;20229;-69
2022/01/04 08:32:13;;;;;;;6.13;2.73;;;;;;;11.63;70.99;97141.16;4987557;28;20964;-69
2022/01/04 08:34:40;;;;;;;3.10;2.40;;;;;;;11.67;72.00;97155.63;4988358;28;20234;-69
2022/01/04 08:37:07;;;;;;;2.33;2.13;;;;;;;12.83;68.59;97088.03;4971537;28;20603;-69
2022/01/04 08:39:34;;;;;;;3.27;2.40;;;;;;;11.94;70.48;97127.25;4970671;28;20230;-69
2022/01/04 08:42:02;;;;;;;2.67;2.30;;;;;;;11.48;72.23;97144.38;4988847;28;20262;-69
2022/01/04 08:44:30;;;;;;;4.53;3.20;;;;;;;12.54;69.07;97076.69;4988023;28;20224;-69
2022/01/04 08:46:57;;;;;;;5.27;3.30;;;;;;;12.61;70.95;97100.56;4988871;28;20229;-69
2022/01/04 08:49:25;;;;;;;4.10;2.67;;;;;;;13.16;67.50;97047.91;4971146;28;20259;-69
2022/01/04 08:51:52;;;;;;;3.53;2.70;;;;;;;13.02;68.37;97071.63;4989008;28;20229;-69
2022/01/04 08:54:19;;;;;;;2.77;2.20;;;;;;;12.63;70.15;97090.44;4988263;28;20228;-69
2022/01/04 08:56:45;;;;;;;3.40;2.30;;;;;;;11.75;70.95;97097.31;4987580;28;20260;-69
2022/01/04 08:59:13;;;;;;;3.83;2.70;;;;;;;11.70;73.61;97126.59;4985588;28;20222;-69
2022/01/04 09:01:41;;;;;;;3.77;2.70;;;;;;;11.48;72.66;97107.00;4986989;28;20232;-69
2022/01/04 09:04:08;;;;;;;3.20;2.80;;;;;;;10.71;75.73;97151.78;4988242;28;20226;-69
2022/01/04 09:06:35;;;;;;;3.03;2.70;;;;;;;12.18;71.18;97088.84;4986487;28;20748;-69
2022/01/04 09:09:03;;;;;;;4.97;3.27;;;;;;;14.12;64.57;96996.03;4988095;28;20234;-69
2022/01/04 09:11:30;;;;;;;8.37;3.23;;;;;;;12.29;69.42;97080.72;4987933;28;20645;-69
2022/01/04 09:19:24;;;;;;;3.77;2.43;;;;;;;13.43;67.53;97034.47;4988322;28;20234;-69
2022/01/04 09:21:52;;;;;;;3.77;2.40;;;;;;;12.02;71.05;97095.81;4970582;28;20646;-69
2022/01/04 09:24:20;;;;;;;5.03;3.03;;;;;;;13.31;67.86;97029.31;4985640;28;20710;-69
2022/01/04 09:26:47;;;;;;;7.23;2.17;;;;;;;13.02;69.97;97059.03;4986844;28;20818;-69
2022/01/04 09:29:19;;;;;;;3.43;2.57;;;;;;;11.81;71.50;97092.84;4987174;28;20240;-69
2022/01/04 09:31:50;;;;;;;2.50;1.97;;;;;;;10.89;75.02;97142.00;4987329;28;20221;-69
2022/01/04 09:34:18;;;;;;;2.80;2.20;;;;;;;13.20;69.09;97028.44;4986234;28;20229;-69
2022/01/04 09:36:45;;;;;;;3.03;2.13;;;;;;;13.60;66.73;97018.25;4986528;28;20271;-69
2022/01/04 09:39:18;;;;;;;2.87;2.13;;;;;;;13.23;68.38;97048.50;4986662;28;20225;-69
2022/01/04 09:41:45;;;;;;;3.00;2.00;;;;;;;13.39;67.53;97033.38;4966577;28;20242;-69
2022/01/04 09:44:12;;;;;;;2.37;2.10;;;;;;;13.16;68.03;97056.75;4987740;28;20233;-69
2022/01/04 09:46:41;;;;;;;6.47;3.43;;;;;;;13.61;66.47;97039.41;4987529;28;20244;-69
2022/01/04 09:49:10;;;;;;;3.40;2.37;;;;;;;13.62;66.72;97033.03;4987289;28;20237;-69
2022/01/04 09:51:41;;;;;;;3.00;2.00;;;;;;;12.97;68.60;97039.47;5006060;28;20232;-69
2022/01/04 09:54:08;;;;;;;2.70;2.10;;;;;;;13.78;66.95;97020.53;5006045;28;20721;-69
2022/01/04 09:56:35;;;;;;;2.40;2.00;;;;;;;14.15;65.13;97011.59;4993204;28;20242;-69
2022/01/04 09:59:03;;;;;;;3.50;2.40;;;;;;;13.57;67.36;97048.22;4986426;28;20226;-69
2022/01/04 10:01:36;;;;;;;1.70;1.60;;;;;;;12.48;68.83;97061.69;4986130;28;20225;-69
2022/01/04 10:04:24;;;;;;;5.20;2.00;;;;;;;12.92;68.66;97060.78;4986136;28;20230;-69
2022/01/04 10:07:01;;;;;;;2.30;2.10;;;;;;;13.81;66.44;97036.09;4985429;28;20252;-69
2022/01/04 10:09:44;;;;;;;3.87;2.33;;;;;;;13.73;66.60;97033.91;4986001;28;20658;-69
2022/01/04 10:12:17;;;;;;;2.07;1.90;;;;;;;12.95;68.88;97060.28;4986158;28;20586;-68
2022/01/04 10:14:49;;;;;;;3.90;2.30;;;;;;;13.76;66.46;97009.28;4989401;28;20241;-69
2022/01/04 10:17:29;;;;;;;2.40;2.00;;;;;;;13.95;65.45;97001.59;4974035;28;20240;-69
2022/01/04 10:19:58;;;;;;;1.90;1.80;;;;;;;13.55;67.18;97042.31;4986099;28;20226;-69
2022/01/04 10:22:31;;;;;;;4.80;2.30;;;;;;;14.04;65.52;97009.94;4985183;28;20232;-69
2022/01/04 10:25:01;;;;;;;3.20;2.67;;;;;;;13.70;66.37;97026.38;4966559;28;20240;-69
2022/01/04 10:27:32;;;;;;;4.03;2.47;;;;;;;14.22;65.22;97014.03;4985549;28;20232;-69
2022/01/04 10:30:12;;;;;;;4.30;2.97;;;;;;;14.24;65.29;97016.44;4985835;28;20234;-69
2022/01/04 10:32:53;;;;;;;2.93;2.47;;;;;;;14.38;64.41;97014.88;4984706;28;21489;-69
2022/01/04 10:35:35;;;;;;;2.43;2.20;;;;;;;14.30;64.71;97010.03;4986140;28;20257;-69
2022/01/04 10:38:15;;;;;;;3.40;2.07;;;;;;;14.14;64.99;97022.56;4986749;28;20698;-69
2022/01/04 10:40:57;;;;;;;2.70;1.93;;;;;;;13.92;65.67;97031.59;4985093;28;21490;-69
2022/01/04 10:43:28;;;;;;;4.70;2.70;;;;;;;14.25;64.96;97026.91;4986071;28;20234;-69
2022/01/04 10:45:56;;;;;;;4.67;3.57;;;;;;;14.26;64.63;97020.47;4985300;28;20232;-69
2022/01/04 10:48:27;;;;;;;3.53;2.70;;;;;;;14.40;64.07;97012.75;4984123;28;20218;-69
2022/01/04 10:50:57;;;;;;;4.10;3.07;;;;;;;13.94;65.02;97034.00;4985628;28;20263;-69
2022/01/04 10:53:28;;;;;;;3.77;2.37;;;;;;;13.95;65.79;97031.06;4984513;28;20226;-69
2022/01/04 10:56:00;;;;;;;3.37;2.10;;;;;;;13.90;65.89;97044.44;4975826;28;20226;-69
2022/01/04 10:58:32;;;;;;;2.67;2.03;;;;;;;13.62;66.24;97045.56;4985203;28;20222;-69
2022/01/04 11:03:53;;;;;;;7.17;3.77;;;;;;;11.15;74.67;97077.41;5052006;28;20566;-69
2022/01/04 11:06:36;;;;;;;10.00;6.03;;;;;;;11.22;73.67;97077.25;5042103;28;20220;-69
2022/01/04 11:09:05;;;;;;;12.00;6.00;;;;;;;11.04;74.54;97088.94;5031499;28;20233;-69
2022/01/04 11:11:32;;;;;;;10.67;6.80;;;;;;;11.79;72.28;97044.22;5023234;28;20631;-69
2022/01/04 11:14:00;;;;;;;11.97;7.00;;;;;;;11.65;72.03;97064.28;5022908;28;20244;-69
2022/01/04 11:16:29;;;;;;;12.47;8.63;;;;;;;11.84;71.49;97046.97;5021908;28;20247;-67
2022/01/04 11:18:58;;;;;;;5.27;3.47;;;;;;;11.72;71.10;97041.72;5023006;28;20746;-67
2022/01/04 11:21:31;;;;;;;4.27;3.27;;;;;;;11.90;70.70;97040.63;5023203;28;20229;-67
2022/01/04 11:24:01;;;;;;;3.67;3.27;;;;;;;12.12;70.37;97039.84;5020999;28;20624;-67
2022/01/04 11:26:29;;;;;;;3.83;3.17;;;;;;;11.99;70.49;97029.53;5022754;28;20231;-67
2022/01/04 11:28:57;;;;;;;4.40;3.10;;;;;;;12.28;69.58;97025.63;5023462;28;20228;-67
2022/01/04 11:31:45;;;;;;;4.60;3.87;;;;;;;12.47;68.87;97017.28;5023123;28;20225;-67
2022/01/04 11:34:17;;;;;;;5.93;3.40;;;;;;;11.92;69.29;97035.03;5021067;28;20607;-67
2022/01/04 11:36:50;;;;;;;4.07;3.10;;;;;;;12.20;69.14;97034.06;5023008;28;20240;-67
2022/01/04 11:39:37;;;;;;;5.73;5.03;;;;;;;12.61;67.76;97017.69;5022475;28;20228;-67
2022/01/04 11:42:04;;;;;;;3.53;2.67;;;;;;;12.09;69.00;97053.69;5022613;28;20611;-67
2022/01/04 11:44:32;;;;;;;3.50;3.13;;;;;;;12.55;67.66;97022.19;5022214;28;20243;-66
2022/01/04 11:46:59;;;;;;;3.30;2.50;;;;;;;12.12;68.44;97042.53;5022702;28;20263;-67
2022/01/04 11:49:27;;;;;;;2.60;2.10;;;;;;;12.28;67.81;97036.31;5022446;28;20220;-67
2022/01/04 11:51:54;;;;;;;3.47;2.30;;;;;;;12.56;67.29;97023.78;5021140;28;20213;-67
2022/01/04 11:54:27;;;;;;;2.87;2.10;;;;;;;12.12;67.45;97047.88;5021560;28;20235;-67
2022/01/04 11:57:08;;;;;;;2.50;2.00;;;;;;;12.42;67.12;97034.06;5031601;28;20715;-66